Home > Products > Valid Products > TAF

000
FTUS45 KTWC 200100 AAA
TAFTUS
TAF AMD
KTUS 200159Z 2002/2024 30012G22KT P6SM VCSH SCT070 BKN110
     FM200400 29008KT P6SM SCT100 BKN200
     FM200700 16007KT P6SM SCT080
     FM201900 32007KT P6SM SCT200=



000
FTUS45 KTWC 200000 AAA
TAFOLS
TAF AMD
KOLS 200005Z 2000/2024 18010KT P6SM VCTS BKN070CB BKN200
     FM200400 VRB04KT P6SM SCT070 BKN200
     FM201900 28010KT P6SM FEW100 SCT200=



000
FTUS45 KTWC 192300
TAFTUS
TAF
KTUS 192320Z 2000/2024 30009KT P6SM VCSH SCT080 BKN200
     FM200300 16007KT P6SM SCT080
     FM201900 32007KT P6SM SCT200=



000
FTUS45 KTWC 192300
TAFDUG
TAF
KDUG 192320Z 2000/2024 31009KT P6SM VCTS BKN050CB BKN100
      TEMPO 2000/2002 VRB15G25KT 5SM TSRA BKN040CB
     FM200400 35008KT P6SM VCSH SCT070 BKN100
     FM200700 01005KT P6SM SCT060
     FM201900 29010G18KT P6SM SCT100 SCT200=



000
FTUS45 KTWC 192300
TAFOLS
TAF
KOLS 192320Z 2000/2024 12008KT P6SM VCTS BKN070CB BKN200
     FM200400 VRB04KT P6SM SCT070 BKN200
     FM201900 28010KT P6SM FEW100 SCT200=



000
FTUS45 KTWC 192200 AAB
TAFOLS
TAF AMD
KOLS 192228Z 1922/2018 12009KT P6SM VCTS BKN070CB BKN200
     FM200300 18006KT P6SM SCT070 BKN100
     FM200600 VRB04KT P6SM SCT070=



000
FTUS45 KTWC 192200 AAB
TAFDUG
TAF AMD
KDUG 192227Z 1922/2018 12008KT P6SM VCTS BKN060CB BKN100
      TEMPO 1923/2001 VRB15G25KT 5SM TSRA BKN040CB
     FM200400 35008KT P6SM VCSH SCT070 BKN100
     FM200700 01005KT P6SM SCT060=



000
FTUS45 KTWC 192200 AAB
TAFTUS
TAF AMD
KTUS 192223Z 1922/2018 11009KT P6SM SCT080 BKN200
     FM200200 26009KT P6SM SCT080
     FM200600 15005KT P6SM SCT080=



000
FTUS45 KTWC 192000 CCA
TAFDUG
TAF COR
KDUG 192017Z 1920/2018 34012KT P6SM VCTS BKN060CB BKN100
      TEMPO 1920/1922 VRB15G25KT 4SM TSRA BKN040CB
     FM200300 35008KT P6SM VCSH SCT070 BKN100
     FM200600 01005KT P6SM SCT060=



000
FTUS45 KTWC 192000 AAA
TAFOLS
TAF AMD
KOLS 192017Z 1920/2018 24010G18KT P6SM VCTS BKN070CB BKN200
      TEMPO 1920/1922 VRB15G25KT 4SM TSRA BKN050CB
     FM200300 18006KT P6SM SCT070 BKN100
     FM200600 VRB04KT P6SM SCT070=



000
FTUS45 KTWC 192000 AAA
TAFDUG
TAF AMD
KDUG 192016Z 1920/2018 34012KT P6SM VCTS BKN060CB BKN100
      TEMPO 1920/1922 VRB15G25KT TSRA BKN040CB
     FM200300 35008KT P6SM VCSH SCT070 BKN100
     FM200600 01005KT P6SM SCT060=



000
FTUS45 KTWC 191900 AAA
TAFTUS
TAF AMD
KTUS 191912Z 1919/2018 28010G18KT P6SM SCT080 BKN200
     FM200200 26009KT P6SM SCT080
     FM200600 15005KT P6SM SCT080=



000
FTUS45 KTWC 191700
TAFOLS
TAF
KOLS 191720Z 1918/2018 24010G18KT P6SM VCSH BKN070 BKN200
     FM200300 18006KT P6SM SCT070 BKN100
     FM200600 VRB04KT P6SM SCT070=



000
FTUS45 KTWC 191700
TAFTUS
TAF
KTUS 191720Z 1918/2018 32010KT P6SM VCSH BKN080 BKN180
     FM192100 25010G18KT P6SM VCSH BKN080 BKN200
     FM200200 26009KT P6SM BKN080
     FM200600 15005KT P6SM SCT080=



000
FTUS45 KTWC 191700
TAFDUG
TAF
KDUG 191720Z 1918/2018 20005KT P6SM VCSH BKN060 OVC200
     FM192000 22015G25KT P6SM VCSH BKN060 BKN100
     FM200300 35008KT P6SM VCSH SCT070 BKN100
     FM200600 01005KT P6SM SCT060=



000
FTUS45 KTWC 191100
TAFDUG
TAF
KDUG 191120Z 1912/2012 33005KT P6SM VCSH BKN080 OVC200
     FM191900 22015G25KT P6SM VCSH BKN060 BKN100
      TEMPO 1920/1922 VRB15G25KT -TSRA BKN060CB
     FM200300 35008KT P6SM VCSH SCT070 BKN100=



000
FTUS45 KTWC 191100
TAFOLS
TAF
KOLS 191120Z 1912/2012 10004KT P6SM BKN080 BKN200
     FM191700 22010G18KT P6SM VCSH BKN070 BKN200
      TEMPO 1918/1920 VRB15G25KT -TSRA BKN060CB
     FM200300 18006KT P6SM SCT070 BKN100=



000
FTUS45 KTWC 191100
TAFTUS
TAF
KTUS 191120Z 1912/2012 15004KT P6SM SCT100 BKN200
     FM191600 32010KT P6SM VCSH BKN080 BKN180
      TEMPO 1919/1921 VRB15G25KT -TSRA BKN080CB
     FM192100 25010G18KT P6SM VCSH BKN080 BKN200
     FM200200 26009KT P6SM BKN100=



000
FTUS45 KTWC 190800 AAA
TAFDUG
TAF AMD
KDUG 190854Z 1909/2006 10007KT P6SM VCSH BKN080 OVC200
      TEMPO 1909/1911 -TSRA SCT080CB
     FM191900 22015G25KT P6SM VCSH BKN050 BKN100=



000
FTUS45 KTWC 190500 RRA
TAFDUG
TAF
KDUG 190542Z 1906/2006 10007KT P6SM VCSH BKN080 OVC200
     FM191900 22015G25KT P6SM VCSH BKN050 BKN100=



000
FTUS45 KTWC 190500 RRA
TAFOLS
TAF
KOLS 190542Z 1906/2006 10008KT P6SM BKN080 BKN200
     FM191900 22010G18KT P6SM VCSH BKN070 BKN200=



000
FTUS45 KTWC 190500 RRA
TAFTUS
TAF
KTUS 190542Z 1906/2006 13010KT P6SM SCT100 BKN200
     FM192000 25010G18KT P6SM VCSH BKN080 BKN200=



000
FTUS45 KTWC 190300 AAB
TAFTUS
TAF AMD
KTUS 190334Z 1904/1924 13009KT P6SM BKN100 BKN200
     FM192000 25010G18KT P6SM VCSH BKN080 BKN200=



000
FTUS45 KTWC 190000 AAA
TAFTUS
TAF AMD
KTUS 190004Z 1900/1924 11012KT P6SM VCSH BKN100 OVC220
     FM190200 15008KT P6SM BKN100 BKN200
     FM192000 25010G18KT P6SM VCSH BKN080 BKN200=



000
FTUS45 KTWC 182300
TAFDUG
TAF
KDUG 182322Z 1900/1924 30010KT P6SM VCSH SCT100 OVC250
      TEMPO 1900/1902 VRB15G35KT 6SM -TSRA BKN080CB
     FM190600 19006KT P6SM BKN060 BKN200
     FM192000 22015G25KT P6SM VCSH BKN050 BKN100=



000
FTUS45 KTWC 182300
TAFOLS
TAF
KOLS 182322Z 1900/1924 16008KT P6SM VCSH BKN100 BKN200
     FM190600 16005KT P6SM BKN070 BKN200
     FM192000 22010G18KT P6SM VCSH BKN070 BKN200=



000
FTUS45 KTWC 182300
TAFTUS
TAF
KTUS 182322Z 1900/1924 15012G22KT P6SM VCSH BKN100 OVC220
     FM190200 15008KT P6SM BKN100 BKN200
     FM192000 25010G18KT P6SM VCSH BKN080 BKN200=



000
FTUS45 KTWC 182300 AAB
TAFTUS
TAF AMD
KTUS 182307Z 1823/1918 16010G18KT P6SM VCSH BKN100 OVC220
     FM190300 17009KT P6SM BKN100 BKN200
     FM190700 14006KT P6SM BKN080 BKN200=



000
FTUS45 KTWC 182300 AAC
TAFOLS
TAF AMD
KOLS 182305Z 1823/1918 18008KT P6SM VCSH BKN100 BKN200
     FM190600 16005KT P6SM BKN070 BKN200=



000
FTUS45 KTWC 182200 AAA
TAFDUG
TAF AMD
KDUG 182202Z 1822/1918 26008KT P6SM VCSH SCT100 OVC250
     FM190300 20012KT P6SM BKN080 BKN200
     FM190600 02006KT P6SM BKN060 BKN200=



000
FTUS45 KTWC 182100 AAB
TAFOLS
TAF AMD
KOLS 182132Z 1822/1918 19007KT P6SM SCT100 OVC250
      TEMPO 1822/1901 35012G30KT P6SM -TSRA SCT050 BKN100CB
     FM190300 18010KT P6SM BKN090 BKN200
     FM190600 16005KT P6SM BKN070 BKN200=



000
FTUS45 KTWC 182100 AAA
TAFOLS
TAF AMD
KOLS 182104Z 1821/1918 19007KT P6SM SCT100 OVC250
      TEMPO 1821/1901 35012KT P6SM -SHRA SCT050 BKN100
     FM190300 18010KT P6SM BKN090 BKN200
     FM190600 16005KT P6SM BKN070 BKN200=



000
FTUS45 KTWC 182100 AAA
TAFTUS
TAF AMD
KTUS 182101Z 1821/1918 19008KT P6SM VCSH SCT120 OVC250
     FM190300 17009KT P6SM BKN100 BKN200
     FM190700 14006KT P6SM BKN080 BKN200=



000
FTUS45 KTWC 181700 RRA
TAFTUS
TAF
KTUS 181742Z 1818/1918 24005KT P6SM OVC250
     FM181900 19012G22KT P6SM SCT120 OVC250
     FM190300 17009KT P6SM BKN100 BKN200
     FM190700 14006KT P6SM BKN080 BKN200=



000
FTUS45 KTWC 181700 RRA
TAFOLS
TAF
KOLS 181742Z 1818/1918 19007KT P6SM SCT120 OVC250
     FM182000 19012G22KT P6SM SCT100 OVC250
     FM190300 18010KT P6SM BKN090 BKN200
     FM190600 16005KT P6SM BKN070 BKN200=



000
FTUS45 KTWC 181700 RRA
TAFDUG
TAF
KDUG 181742Z 1818/1918 16005KT P6SM FEW150 OVC250
     FM181900 21013G25KT P6SM SCT100 OVC250
     FM190300 20012KT P6SM BKN080 BKN200
     FM190600 02006KT P6SM BKN060 BKN200=



000
FTUS45 KTWC 181100
TAFTUS
TAF
KTUS 181126Z 1812/1912 10005KT P6SM OVC250
     FM181900 19015G23KT P6SM SCT120 OVC250
     FM190300 17009KT P6SM BKN100 BKN200
     FM190700 14006KT P6SM BKN080 BKN200=



000
FTUS45 KTWC 181100
TAFDUG
TAF
KDUG 181126Z 1812/1912 14005KT P6SM FEW150 OVC250
     FM181900 21017G26KT P6SM SCT100 OVC250
     FM190300 20012KT P6SM BKN080 BKN200
     FM190600 02006KT P6SM BKN060 BKN200=



000
FTUS45 KTWC 181100
TAFOLS
TAF
KOLS 181126Z 1812/1912 11003KT P6SM FEW150 OVC250
     FM181800 19018G27KT P6SM SCT100 OVC250
     FM190300 18010KT P6SM BKN090 BKN200
     FM190600 16005KT P6SM BKN070 BKN200=



000
FTUS45 KTWC 180500
TAFDUG
TAF
KDUG 180520Z 1806/1906 VRB04KT P6SM FEW150 OVC250
     FM181800 17012G20KT P6SM VCSH BKN060 OVC250
     FM190300 36006KT P6SM SCT060 BKN200=



000
FTUS45 KTWC 180500
TAFOLS
TAF
KOLS 180520Z 1806/1906 VRB04KT P6SM FEW150 OVC250
     FM181800 18012G20KT P6SM SCT060 OVC250
     FM190300 VRB04KT P6SM SCT060 BKN200=



000
FTUS45 KTWC 180500
TAFTUS
TAF
KTUS 180520Z 1806/1906 15006KT P6SM BKN250
     FM181900 19014G22KT P6SM SCT080 OVC250
     FM190300 17010KT P6SM SCT080 BKN200=



000
FTUS45 KTWC 172300 RRA
TAFDUG
TAF
KDUG 172342Z 1800/1824 15009KT P6SM SCT250
     FM181200 VRB03KT P6SM FEW100 BKN250
     FM181800 16012G22KT P6SM SCT100 OVC250=



000
FTUS45 KTWC 172300 RRA
TAFTUS
TAF
KTUS 172342Z 1800/1824 24005KT P6SM SCT250
     FM180700 15007KT P6SM FEW150 OVC250
     FM181900 19012G18KT P6SM SCT150 OVC250=



000
FTUS45 KTWC 172300 RRA
TAFOLS
TAF
KOLS 172342Z 1800/1824 17006KT P6SM SCT250
     FM181000 VRB04KT P6SM FEW150 OVC250
     FM181800 17014G22KT P6SM SCT150 OVC250=



000
FTUS45 KTWC 171700
TAFTUS
TAF
KTUS 171737Z 1718/1818 VRB03KT P6SM SKC
     FM172000 28007KT P6SM FEW250
     FM180300 25005KT P6SM BKN250
     FM180700 14007KT P6SM FEW150 OVC250=



000
FTUS45 KTWC 171700
TAFDUG
TAF
KDUG 171737Z 1718/1818 19009KT P6SM SKC
     FM172000 22012KT P6SM FEW200
     FM180300 35007KT P6SM BKN200
     FM181000 VRB03KT P6SM FEW130 OVC200=



000
FTUS45 KTWC 171700
TAFOLS
TAF
KOLS 171737Z 1718/1818 17009KT P6SM SKC
     FM172000 22012G18KT P6SM FEW250
     FM180300 15007KT P6SM BKN250
     FM181000 VRB04KT P6SM FEW140 OVC250=



000
FTUS45 KTWC 171100
TAFOLS
TAF
KOLS 171120Z 1712/1812 VRB03KT P6SM SKC
     FM172000 21008KT P6SM SCT250
     FM180300 12005KT P6SM FEW150 BKN250=



000
FTUS45 KTWC 171100
TAFDUG
TAF
KDUG 171120Z 1712/1812 VRB03KT P6SM SKC
     FM171900 17008KT P6SM SCT250
     FM180400 10006KT P6SM BKN200=



000
FTUS45 KTWC 171100
TAFTUS
TAF
KTUS 171120Z 1712/1812 14007KT P6SM SKC
     FM171600 VRB03KT P6SM FEW250
     FM172100 23007KT P6SM SCT250
     FM180300 16006KT P6SM BKN250=



000
FTUS45 KTWC 170500
TAFDUG
TAF
KDUG 170520Z 1706/1806 24011KT P6SM SKC
     FM170900 VRB04KT P6SM FEW250
     FM171900 20010KT P6SM SCT250=



000
FTUS45 KTWC 170500
TAFTUS
TAF
KTUS 170520Z 1706/1806 15006KT P6SM FEW250
     FM172100 29009KT P6SM SCT250
     FM180300 23006KT P6SM SCT250=



000
FTUS45 KTWC 170500
TAFOLS
TAF
KOLS 170520Z 1706/1806 VRB04KT P6SM FEW250
     FM172000 21009KT P6SM SCT250
     FM180300 VRB04KT P6SM SCT250=



    US Dept of Commerce
    National Oceanic and Atmospheric Administration
    National Weather Service
    1325 East West Highway
    Silver Spring, MD 20910
    Page Author: NWS Internet Services Team
Disclaimer
Information Quality
Credits
Glossary
Privacy Policy
Freedom of Information Act (FOIA)
About Us
Career Opportunities